createdAt,value
2016-12-14T10:15:42.216Z,60.48
2016-12-14T10:16:22.838Z,60.28
2016-12-14T10:17:03.549Z,57.39
2016-12-14T10:17:44.196Z,58.75
2016-12-14T10:18:24.830Z,56.52
2016-12-14T10:19:05.528Z,56.62
2016-12-14T10:19:46.149Z,56.69
2016-12-14T10:20:26.812Z,57.46
2016-12-14T10:21:07.519Z,55.34
2016-12-14T10:21:48.157Z,55.54
2016-12-14T10:22:28.775Z,53.8
2016-12-14T10:23:09.418Z,53.39
2016-12-14T10:23:50.065Z,54.06
2016-12-14T10:24:30.701Z,54.25
2016-12-14T10:25:11.450Z,53.8
2016-12-14T10:25:52.104Z,53
2016-12-14T10:26:32.711Z,53.87
2016-12-14T10:27:13.402Z,54.16
2016-12-14T10:27:54.127Z,54.74
2016-12-14T10:28:34.780Z,54.44
2016-12-14T10:29:15.439Z,55.22
2016-12-14T10:29:56.051Z,54.25
2016-12-14T10:30:36.698Z,54.64
2016-12-14T10:31:17.364Z,53.89
2016-12-14T10:31:58.007Z,54.18
2016-12-14T10:32:38.649Z,53.77
2016-12-14T10:33:19.277Z,53.77
2016-12-14T10:33:59.908Z,55.63
2016-12-14T10:34:40.541Z,57.62
2016-12-14T10:43:09.024Z,53.89
2016-12-14T10:43:49.757Z,53.99
2016-12-14T10:44:30.463Z,53.51
2016-12-14T10:45:11.087Z,53.31
2016-12-14T10:45:51.950Z,53.8
2016-12-14T10:46:32.576Z,53.61
2016-12-14T10:47:13.208Z,54.18
2016-12-14T10:47:53.905Z,53.99
2016-12-14T10:48:34.531Z,55.31
2016-12-14T10:49:15.166Z,53.99
2016-12-14T10:49:55.796Z,56.69
2016-12-14T10:50:36.417Z,55.36
2016-12-14T10:51:17.102Z,56.91
2016-12-14T10:51:57.733Z,53.63
2016-12-14T10:52:38.493Z,53.73
2016-12-14T10:53:19.189Z,53.8
2016-12-14T10:53:59.812Z,54.18
2016-12-14T10:54:40.435Z,54.38
2016-12-14T10:55:21.063Z,54.57
2016-12-14T10:56:01.699Z,54.47
2016-12-14T10:56:42.332Z,54.38
2016-12-14T10:57:22.964Z,58.04
2016-12-14T10:58:03.587Z,55.56
2016-12-14T10:58:44.211Z,54.88
2016-12-14T10:59:24.850Z,54.02
2016-12-14T11:00:05.474Z,55.76
2016-12-14T11:00:46.098Z,53.63
2016-12-14T11:01:26.779Z,52.57
2016-12-14T11:02:07.415Z,53.25
2016-12-14T11:02:48.043Z,54.6
2016-12-14T11:03:29.360Z,53.66
2016-12-14T11:04:09.988Z,53.63
2016-12-14T11:04:50.754Z,52.79
2016-12-14T11:05:31.399Z,52.79
2016-12-14T11:06:12.046Z,52.79
2016-12-14T11:06:52.675Z,53.27
2016-12-14T11:07:33.300Z,55.3
2016-12-14T11:08:14.079Z,54.05
2016-12-14T11:08:55.508Z,53.95
2016-12-14T11:09:36.130Z,53.08
2016-12-14T11:10:16.756Z,53.08
2016-12-14T11:10:57.448Z,54.17
2016-12-14T11:11:38.082Z,53.37
2016-12-14T11:12:18.784Z,54.43
2016-12-14T11:12:59.493Z,54.24
2016-12-14T11:13:40.122Z,54.36
2016-12-14T11:14:20.760Z,54.43
2016-12-14T11:15:01.436Z,54.33
2016-12-14T11:15:42.063Z,54.46
2016-12-14T11:16:22.729Z,55.49
2016-12-14T11:31:46.053Z,51.85
2016-12-14T11:32:26.691Z,51.92
2016-12-14T11:33:07.330Z,51.85
2016-12-14T11:33:47.985Z,52.4
2016-12-14T11:34:28.612Z,52.72
2016-12-14T11:35:09.244Z,53.2
2016-12-14T11:35:49.886Z,52.91
2016-12-14T11:36:30.529Z,52.91
2016-12-14T11:37:11.152Z,53.39
2016-12-14T11:37:51.885Z,53.11
2016-12-14T11:38:32.504Z,53.11
2016-12-14T11:39:13.142Z,54.65
2016-12-14T11:39:53.839Z,53.39
2016-12-14T11:40:34.459Z,53.01
2016-12-14T11:41:15.184Z,52.04
2016-12-14T11:41:55.823Z,51.82
2016-12-14T11:42:36.523Z,52.31
2016-12-14T11:43:17.229Z,52.4
2016-12-14T11:43:57.860Z,52.21
2016-12-14T11:44:38.492Z,52.81
2016-12-14T11:45:19.185Z,51.65
2016-12-14T11:45:59.829Z,51.82
2016-12-14T11:46:40.463Z,51.25
2016-12-14T11:47:21.179Z,51.73
2016-12-14T11:48:01.854Z,51.05
2016-12-14T11:48:42.438Z,50.96
2016-12-14T11:49:23.059Z,50.86
2016-12-14T11:50:03.692Z,50.96
2016-12-14T11:50:44.394Z,50.86
2016-12-14T11:51:25.042Z,53.47
2016-12-14T11:52:05.775Z,56.74
2016-12-14T11:52:46.395Z,56.26
2016-12-14T11:53:27.019Z,52.79
2016-12-14T11:54:07.709Z,53.27
2016-12-14T11:54:48.348Z,51.75
2016-12-14T11:55:28.994Z,51.95
2016-12-14T11:56:09.723Z,50.76
2016-12-14T11:56:50.359Z,51.82
2016-12-14T11:57:30.996Z,53.2
2016-12-14T11:58:11.628Z,51.95
2016-12-14T11:58:52.250Z,50.89
2016-12-14T11:59:32.905Z,50.5
2016-12-14T12:00:13.641Z,51.05
2016-12-14T12:00:54.362Z,51.82
2016-12-14T12:01:34.928Z,52.01
2016-12-14T12:02:15.557Z,50.59
2016-12-14T12:02:56.188Z,50.89
2016-12-14T12:03:36.817Z,50.11
2016-12-14T12:04:17.445Z,49.51
2016-12-14T12:04:58.098Z,49.9
2016-12-14T12:05:38.718Z,50.86
2016-12-14T12:06:19.405Z,50.5
2016-12-14T12:07:00.050Z,51.75
2016-12-14T12:07:40.693Z,55.13
2016-12-14T12:08:21.320Z,50.11
2016-12-14T12:09:01.943Z,51.95
2016-12-14T12:09:42.630Z,51.85
2016-12-14T12:10:23.253Z,51.85
2016-12-14T12:11:03.879Z,50.11
2016-12-14T12:11:44.512Z,50.5
2016-12-14T12:12:25.181Z,50.47
2016-12-14T12:13:05.811Z,51.56
2016-12-14T12:13:46.445Z,54.46
2016-12-14T12:14:27.083Z,50.96
2016-12-14T12:15:07.710Z,49.9
2016-12-14T12:15:48.344Z,50.47
2016-12-14T12:16:28.969Z,51.65
2016-12-14T12:17:09.608Z,49.53
2016-12-14T12:17:50.374Z,49.82
2016-12-14T12:18:30.984Z,50.79
2016-12-14T12:19:11.609Z,50.59
2016-12-14T12:19:52.235Z,50.59
2016-12-14T12:20:32.882Z,50.5
2016-12-14T12:21:13.511Z,51.17
2016-12-14T12:21:54.142Z,51.65
2016-12-14T12:22:34.778Z,50.5
2016-12-14T12:23:15.401Z,50.5
2016-12-14T12:23:56.052Z,52.04
2016-12-14T12:24:36.676Z,50.59
2016-12-14T12:25:17.330Z,50.69
2016-12-14T12:25:57.967Z,51.85
2016-12-14T12:26:38.619Z,50.67
2016-12-14T12:27:19.256Z,50.57
2016-12-14T12:27:59.886Z,50.09
2016-12-14T12:28:40.514Z,53.37
2016-12-14T12:29:21.166Z,50.38
2016-12-14T12:30:01.804Z,50.96
2016-12-14T12:30:42.460Z,50.57
2016-12-14T12:31:23.101Z,49.7
2016-12-14T12:32:03.797Z,49.99
2016-12-14T12:32:44.510Z,49.51
2016-12-14T12:33:25.170Z,49.92
2016-12-14T12:34:05.799Z,53.3
2016-12-14T12:34:46.471Z,49.7
2016-12-14T14:46:57.611Z,53.64
2016-12-14T14:47:38.283Z,51.9
2016-12-14T14:48:19.011Z,49.39
2016-12-14T14:49:00.264Z,49.19
2016-12-14T14:49:40.946Z,51.13
2016-12-14T14:50:21.674Z,50.16
2016-12-14T14:51:02.301Z,49.87
2016-12-14T14:51:42.971Z,51.81
2016-12-14T14:52:23.698Z,49.77
2016-12-14T14:53:04.394Z,49.68
2016-12-14T15:01:12.326Z,47.91
2016-12-14T15:03:05.283Z,48.3
2016-12-14T15:03:45.905Z,49.17
2016-12-14T15:05:43.628Z,46.47
2016-12-14T15:42:50.106Z,48.42
2016-12-14T15:55:40.848Z,47.94
2016-12-14T15:56:21.477Z,48.33
2016-12-14T15:58:19.196Z,48.52
2016-12-14T16:00:00.722Z,48.71
2016-12-14T16:00:41.325Z,48.03
2016-12-14T16:01:21.942Z,48.03
2016-12-14T16:02:02.577Z,48.71
2016-12-14T16:02:43.295Z,48.52
2016-12-14T16:03:23.961Z,48.33
2016-12-14T16:04:04.588Z,48.23
2016-12-14T16:04:45.223Z,48.42
2016-12-14T16:05:25.882Z,50.38
2016-12-14T16:06:06.614Z,48.54
2016-12-14T16:06:47.274Z,48.44
2016-12-14T16:07:27.919Z,48.54
2016-12-14T16:08:08.546Z,48.64
2016-12-14T16:08:49.163Z,48.35
2016-12-14T16:09:29.789Z,52.21
2016-12-14T16:10:10.409Z,49.7
2016-12-14T16:10:51.041Z,49.82
2016-12-14T16:11:31.665Z,49.15
2016-12-14T16:12:12.300Z,49.34
2016-12-14T16:12:52.966Z,48.37
2016-12-14T16:13:33.612Z,48.28
2016-12-14T16:14:14.251Z,48.37
2016-12-14T16:14:54.891Z,48.69
2016-12-14T16:15:35.512Z,49.07
2016-12-14T16:16:16.163Z,49.27
2016-12-14T16:16:56.791Z,49.46
2016-12-14T16:17:37.419Z,48.21
2016-12-14T16:18:18.052Z,48.11
2016-12-14T16:18:58.705Z,48.39
2016-12-14T16:19:39.339Z,48.59
2016-12-14T16:20:19.986Z,48.21
2016-12-14T16:21:00.640Z,48.11
2016-12-14T16:21:41.276Z,48.3
2016-12-14T16:22:21.903Z,48.01
2016-12-14T16:23:02.594Z,49.44
2016-12-14T16:23:43.221Z,48.08
2016-12-14T16:24:23.913Z,46.92
2016-12-14T16:25:04.554Z,48.25
2016-12-14T16:25:45.206Z,46.92
2016-12-14T16:26:25.814Z,46.13
2016-12-14T16:27:06.519Z,45.94
2016-12-14T16:27:47.154Z,46.61
2016-12-14T16:28:27.863Z,45.84
2016-12-14T16:29:08.489Z,47
2016-12-14T16:29:49.136Z,47.38
2016-12-14T16:30:29.834Z,46.81
2016-12-14T16:31:10.546Z,47.19
2016-12-14T16:31:51.095Z,47.09
2016-12-14T16:32:31.723Z,47.29
2016-12-14T16:33:12.355Z,47.48
2016-12-14T16:33:52.988Z,47.58
2016-12-14T16:34:33.703Z,47.58
2016-12-14T16:35:14.450Z,47.29
2016-12-14T16:35:55.098Z,47.6
2016-12-14T16:36:35.732Z,47.41
2016-12-14T16:37:16.397Z,47.99
2016-12-14T16:37:57.025Z,49.92
2016-12-14T16:38:37.666Z,50.69
2016-12-14T16:39:18.309Z,50.96
2016-12-14T16:39:58.999Z,49.9
2016-12-14T16:40:39.628Z,49.9
2016-12-14T16:41:20.266Z,50.76
2016-12-14T16:42:00.898Z,50.96
2016-12-14T16:42:41.526Z,50.38
2016-12-14T16:43:22.163Z,51.05
2016-12-14T16:44:02.799Z,49.9
2016-12-14T16:44:43.430Z,52.01
2016-12-14T16:45:24.059Z,50.96
2016-12-14T16:46:04.704Z,50.57
2016-12-14T16:46:45.346Z,51.44
2016-12-14T16:47:25.979Z,52.01
2016-12-14T16:48:06.607Z,49.6
2016-12-14T16:48:47.243Z,50.76
2016-12-14T16:49:27.864Z,51.82
2016-12-14T17:12:19.572Z,48.37
2016-12-14T17:13:00.209Z,51.85
2016-12-14T17:13:40.890Z,49.53
2016-12-14T17:14:21.534Z,54.27
2016-12-14T17:15:02.176Z,51.78
2016-12-14T17:15:42.880Z,50.59
2016-12-14T17:16:23.546Z,51.85
2016-12-14T17:17:04.168Z,47.09
2016-12-14T17:17:44.803Z,47.67
2016-12-14T17:18:25.425Z,48.25
2016-12-14T17:19:06.065Z,49.24
2016-12-14T17:19:46.752Z,47.96
2016-12-14T17:20:27.389Z,47.48
2016-12-14T17:21:08.049Z,50.47
2016-12-14T17:21:48.708Z,48.06
2016-12-14T17:22:29.349Z,50.38
2016-12-14T17:23:10.024Z,49.22
2016-12-14T17:23:50.772Z,47.77
2016-12-14T17:24:31.423Z,49.99
2016-12-14T17:25:12.083Z,51.05
2016-12-14T17:25:52.793Z,49.51
2016-12-14T17:26:33.435Z,49.53
2016-12-14T17:27:14.070Z,49.32
2016-12-14T17:27:54.728Z,48.25
2016-12-14T17:28:35.403Z,48.93
2016-12-14T17:29:16.046Z,47.87
2016-12-14T17:29:56.756Z,50.57
2016-12-14T17:30:37.416Z,48.25
2016-12-14T17:31:18.080Z,48.54
2016-12-14T17:31:58.822Z,50.89
2016-12-14T17:32:39.462Z,48.76
2016-12-14T17:33:20.116Z,50.59
2016-12-14T17:34:00.756Z,48.57
2016-12-14T17:34:41.380Z,48.37
2016-12-14T17:35:22.032Z,48.06
2016-12-14T17:36:02.677Z,47.77
2016-12-14T17:36:43.300Z,49.41
2016-12-14T17:37:24.602Z,52.14
2016-12-14T17:38:05.226Z,49.12
2016-12-14T17:38:45.849Z,49.99
2016-12-14T17:39:26.477Z,48.44
2016-12-14T17:40:07.113Z,48.25
2016-12-14T17:40:47.745Z,47.77
2016-12-14T17:41:28.367Z,48.28
2016-12-14T17:42:09.015Z,48.28
2016-12-14T17:42:49.663Z,47.58
2016-12-14T17:43:30.290Z,47.29
2016-12-14T17:44:10.933Z,47.5
2016-12-14T17:44:51.622Z,47.5
2016-12-14T17:45:32.270Z,47.7
2016-12-14T17:46:12.895Z,47.22
2016-12-14T17:46:53.539Z,47.41
2016-12-14T17:47:34.175Z,47.02
2016-12-14T17:48:14.903Z,47.7
2016-12-14T17:48:55.532Z,47.8
2016-12-14T17:49:36.165Z,49.34
2016-12-14T17:50:16.795Z,48.08
2016-12-14T17:50:57.544Z,47.7
2016-12-14T17:51:38.163Z,47.99
2016-12-14T17:52:18.862Z,47.7
2016-12-14T17:52:59.604Z,47.63
2016-12-14T17:53:40.263Z,49.55
2016-12-14T17:54:20.891Z,48.69
2016-12-14T17:55:01.624Z,48.69
2016-12-14T17:55:42.328Z,51.01
2016-12-14T17:56:22.980Z,51.2
2016-12-14T17:57:03.651Z,51.97
2016-12-14T17:57:44.294Z,54.03
2016-12-14T17:58:24.925Z,49.29
2016-12-14T17:59:05.557Z,47.91
2016-12-14T17:59:46.259Z,47.43
2016-12-14T18:00:26.903Z,48.21
2016-12-14T18:01:07.554Z,48.97
2016-12-14T18:01:48.180Z,48.79
2016-12-14T18:02:28.842Z,50.52
2016-12-14T18:03:09.471Z,47.7
2016-12-14T18:03:50.109Z,48.57
2016-12-14T18:04:30.738Z,47.5
2016-12-14T18:05:11.373Z,47.33
2016-12-14T18:05:52.004Z,48.49
2016-12-14T18:06:32.634Z,47.14
2016-12-14T18:07:13.271Z,47.81
2016-12-14T18:07:53.898Z,47.05
2016-12-14T18:08:34.552Z,47.89
2016-12-14T18:09:15.190Z,45.96
2016-12-14T18:09:55.821Z,46.06
